Embarcacion, Argentina
Current Conditions -  °F | °C
As of 8:00 AM on Monday 22 Dec 2014 (Local Time) from SLYA Reporting Station
Drizzle Drizzle  
Wind Chill: 61°   Ceiling: 300
Heat Index: 61°   Visibility: 1.2mi
Dew Point: 61°   Wind: 12mph
Humidity: 100%   Direction: 180°S
Pressure: 30.12"   Gusts: NA
Location:  23.22°S, 64.1°W
Report Text: SLYA 221100Z 18010KT 2000 -DZ BKN003 OVC070 16/16 Q1020
Loading
Personal Weather Stations






























Interactive Weather Map New forecast layout! Learn more

10-Day Weather Forecast

Advertisements
Track Severe Weather on mobile